METAR Data
IDs: Format: Raw Decoded Include TAF

Data at: 0858 UTC 26 Jan 2020

KRNH 260835Z AUTO 26006KT 10SM OVC009 M04/M06 A2994 RMK AO2 T10371057
KRNH 260815Z AUTO 27005KT 10SM OVC009 M03/M05 A2994 RMK AO2 T10351055
KRNH 260755Z AUTO 26003KT 10SM OVC009 M03/M06 A2994 RMK AO2 T10351056
KRNH 260735Z AUTO 00000KT 10SM OVC011 M03/M06 A2994 RMK AO2 T10351056
KRNH 260715Z AUTO 29005KT 10SM OVC011 M03/M06 A2994 RMK AO2 T10351056
KRNH 260655Z AUTO 29004KT 10SM OVC011 M04/M06 A2995 RMK AO2 T10361057
KRNH 260635Z AUTO 30004KT 10SM OVC011 M04/M06 A2995 RMK AO2 T10371058
KRNH 260615Z AUTO 28005KT 10SM OVC013 M04/M06 A2995 RMK AO2 T10401060
KRNH 260555Z AUTO 28006KT 10SM OVC013 M04/M06 A2995 RMK AO2 T10401060 11015 21040 410021040
KRNH 260535Z AUTO 27007KT 10SM OVC013 M04/M06 A2995 RMK AO2 T10371058
KRNH 260515Z AUTO 27005KT 10SM OVC013 M03/M05 A2994 RMK AO2 T10351055
KRNH 260455Z AUTO 26005KT 10SM OVC011 M03/M05 A2994 RMK AO2 T10321053
KRNH 260435Z AUTO 27004KT 10SM OVC011 M03/M05 A2994 RMK AO2 T10281050
KRNH 260415Z AUTO 31004KT 10SM OVC011 M03/M05 A2994 RMK AO2 T10271050
KRNH 260355Z AUTO 32007KT 10SM OVC011 M03/M05 A2994 RMK AO2 T10271049
KRNH 260335Z AUTO 31005KT 10SM OVC011 M03/M05 A2993 RMK AO2 T10261048
KRNH 260315Z AUTO 32004KT 10SM OVC011 M02/M05 A2993 RMK AO2 T10251047
KRNH 260255Z AUTO 29008KT 10SM OVC011 M03/M05 A2994 RMK AO2 T10261046
KRNH 260235Z AUTO 29004KT 10SM OVC013 M03/M05 A2993 RMK AO2 T10271046
KRNH 260215Z AUTO 29005KT 10SM OVC013 M03/M05 A2993 RMK AO2 T10301048
KRNH 260155Z AUTO 28005KT 10SM SCT013 SCT048 M04/M05 A2993 RMK AO2 T10361055
KRNH 260135Z AUTO 28006KT 10SM SCT048 M03/M05 A2992 RMK AO2 T10341055
KRNH 260115Z AUTO 28006KT 10SM OVC048 M03/M05 A2992 RMK AO2 T10291052
KRNH 260055Z AUTO 29006KT 10SM OVC048 M02/M05 A2992 RMK AO2 T10241049
KRNH 260035Z AUTO 30006KT 10SM OVC048 M02/M04 A2992 RMK AO2 T10181045
KRNH 260015Z AUTO 29006KT 10SM OVC048 M01/M04 A2993 RMK AO2 T10151041
KRNH 252355Z AUTO 29005KT 10SM OVC050 M01/M04 A2992 RMK AO2 T10151042 11002 21020
KRNH 252335Z AUTO 30006KT 10SM OVC050 M02/M04 A2993 RMK AO2 T10201045
KRNH 252315Z AUTO 30006KT 10SM OVC048 M02/M04 A2993 RMK AO2 T10171044
KRNH 252255Z AUTO 32004KT 10SM BKN046 OVC050 M01/M04 A2992 RMK AO2 T10131042
KRNH 252235Z AUTO 32005KT 10SM OVC046 M01/M04 A2992 RMK AO2 T10101041
KRNH 252215Z AUTO 31006KT 10SM OVC044 M01/M04 A2992 RMK AO2 T10071040
KRNH 252155Z AUTO 31007KT 10SM OVC044 00/M04 A2992 RMK AO2 T10021036
KRNH 252135Z AUTO 31008KT 10SM SCT011 SCT027 OVC044 00/M03 A2991 RMK AO2 T10021034
KRNH 252115Z AUTO 31006KT 10SM BKN011 BKN027 OVC045 00/M03 A2992 RMK AO2 T10031032
KRNH 252055Z AUTO 31008KT 7SM BKN009 OVC035 00/M03 A2992 RMK AO2 T10051033
KRNH 252035Z AUTO 31008KT 10SM SCT009 BKN037 OVC049 00/M03 A2991 RMK AO2 T10021032
KRNH 252015Z AUTO 31007KT 5SM HZ SCT009 SCT040 OVC049 00/M03 A2991 RMK AO2 T10051031
KRNH 251955Z AUTO 30008KT 4SM HZ SCT011 SCT036 OVC045 00/M03 A2992 RMK AO2 T10051034
KRNH 251935Z AUTO 30008KT 7SM SCT011 OVC049 00/M03 A2992 RMK AO2 T10051035
KRNH 251915Z AUTO 31011KT 10SM SCT011 SCT028 OVC049 00/M04 A2993 RMK AO2 T10051036
KRNH 251855Z AUTO 30010KT 10SM SCT009 BKN028 OVC049 00/M03 A2993 RMK AO2 T10051035
KRNH 251835Z AUTO 31009KT 10SM SCT009 OVC026 00/M04 A2993 RMK AO2 T10051036
KRNH 251815Z AUTO 31009KT 10SM OVC009 M01/M04 A2993 RMK AO2 T10071036
KRNH 251755Z AUTO 31008KT 10SM OVC009 M01/M04 A2994 RMK AO2 T10081036 11008 21026
KRNH 251735Z AUTO 32007KT 7SM BKN009 OVC023 M01/M04 A2994 RMK AO2 T10111038
KRNH 251715Z AUTO 31011KT 7SM BKN009 BKN023 OVC046 M01/M04 A2994 RMK AO2 T10111040
KRNH 251655Z AUTO 31007KT 10SM BKN009 BKN023 OVC046 M01/M04 A2994 RMK AO2 T10101038
KRNH 251635Z AUTO 32007KT 10SM BKN009 OVC044 M01/M04 A2994 RMK AO2 T10141040
KRNH 251615Z AUTO 33008KT 10SM BKN009 OVC044 M02/M04 A2994 RMK AO2 T10161041
KRNH 251555Z AUTO 32007KT 10SM OVC009 M02/M04 A2994 RMK AO2 T10181042
KRNH 251535Z AUTO 32007KT 10SM OVC009 M02/M04 A2993 RMK AO2 T10201041
KRNH 251515Z AUTO 33009KT 10SM OVC009 M02/M04 A2993 RMK AO2 T10231042
KRNH 251455Z AUTO 32007KT 7SM -SN SCT009 BKN032 OVC049 M02/M04 A2993 RMK AO2 T10231041
KRNH 251435Z AUTO 32007KT 10SM SCT007 BKN030 OVC039 M02/M04 A2993 RMK AO2 T10251041
KRNH 251415Z AUTO 32007G16KT 5SM -SN SCT007 SCT030 OVC048 M02/M04 A2992 RMK AO2 T10251042
KRNH 251355Z AUTO 33007KT 7SM SCT028 BKN033 OVC048 M03/M04 A2992 RMK AO2 T10261042
KRNH 251335Z AUTO 33009KT 4SM -SN OVC031 M02/M04 A2992 RMK AO2 T10251042
KRNH 251315Z AUTO 33009KT 7SM -SN SCT008 SCT011 OVC028 M02/M04 A2992 RMK AO2 T10241040
KRNH 251255Z AUTO 32008KT 10SM BKN008 OVC028 M02/M04 A2992 RMK AO2 T10241040
KRNH 251235Z AUTO 32009KT 10SM -SN SCT008 SCT012 OVC026 M02/M04 A2992 RMK AO2 T10231040
KRNH 251215Z AUTO 32009KT 10SM BKN008 BKN012 OVC028 M02/M04 A2992 RMK AO2 T10231038
KRNH 251155Z AUTO 32008KT 10SM BKN008 OVC012 M02/M04 A2991 RMK AO2 70003 T10231038 11015 21025
KRNH 251135Z AUTO 32009KT 10SM BKN008 BKN030 OVC049 M02/M04 A2991 RMK AO2 T10251040
KRNH 251115Z AUTO 32008KT 7SM BKN008 BKN032 OVC050 M02/M04 A2990 RMK AO2 T10251040
KRNH 251055Z AUTO 33008KT 3SM -SN SCT007 SCT029 OVC050 M02/M04 A2991 RMK AO2 T10251040
KRNH 251035Z AUTO 33009KT 4SM -SN BKN009 BKN014 OVC029 M02/M04 A2991 RMK AO2 T10251040
KRNH 251015Z AUTO 34007KT 5SM -SN OVC007 M02/M04 A2991 RMK AO2 T10241039
KRNH 250955Z AUTO 33008KT 5SM -SN OVC007 M02/M04 A2991 RMK AO2 T10231038
KRNH 250935Z AUTO 33008KT 7SM BKN007 BKN025 OVC033 M02/M04 A2991 RMK AO2 T10221037
KRNH 250915Z AUTO 33008KT 5SM -SN BKN007 BKN014 OVC050 M02/M04 A2991 RMK AO2 T10221037
KRNH 250855Z AUTO 33009KT 5SM -SN OVC007 M02/M04 A2992 RMK AO2 T10211036
KRNH 250835Z AUTO 32007KT 3SM -SN OVC007 M02/M04 A2991 RMK AO2 T10201036
KRNH 250815Z AUTO 32009KT 4SM -SN OVC007 M02/M03 A2992 RMK AO2 T10181035
KRNH 250755Z AUTO 33009KT 10SM OVC009 M02/M03 A2992 RMK AO2 T10171035
KRNH 250735Z AUTO 32009KT 10SM OVC009 M02/M03 A2992 RMK AO2 T10171035
KRNH 250715Z AUTO 32008KT 10SM OVC009 M02/M03 A2992 RMK AO2 T10161032
KRNH 250655Z AUTO 32010KT 10SM OVC009 M02/M03 A2992 RMK AO2 T10161031
KRNH 250635Z AUTO 32010KT 10SM OVC007 M01/M03 A2993 RMK AO2 T10151030
KRNH 250615Z AUTO 33010KT 10SM OVC007 M01/M03 A2993 RMK AO2 T10151029
KRNH 250555Z AUTO 33009KT 10SM OVC007 M01/M03 A2993 RMK AO2 T10151028 10000 21015 400081018
KRNH 250535Z AUTO 33009KT 10SM OVC007 M01/M03 A2994 RMK AO2 T10121026
KRNH 250515Z AUTO 32007KT 10SM OVC007 M01/M02 A2994 RMK AO2 T10101023
KRNH 250455Z AUTO 33010KT 10SM OVC007 M01/M02 A2994 RMK AO2 T10101022
KRNH 250435Z AUTO 33008KT 10SM OVC007 M01/M02 A2994 RMK AO2 T10071020
KRNH 250415Z AUTO 32008KT 10SM OVC009 00/M02 A2994 RMK AO2 T10031016
KRNH 250355Z AUTO 33006KT 10SM OVC009 00/M01 A2994 RMK AO2 T10011013
KRNH 250335Z AUTO 34005KT 10SM OVC009 00/M01 A2994 RMK AO2 T10011013
KRNH 250315Z AUTO 33007KT 10SM OVC009 00/M01 A2994 RMK AO2 T10011013
KRNH 250255Z AUTO 33006KT 10SM OVC011 00/M01 A2994 RMK AO2 T10011012
KRNH 250235Z AUTO 33006KT 10SM OVC011 00/M01 A2995 RMK AO2 T10011012
KRNH 250215Z AUTO 35006KT 10SM OVC013 00/M01 A2994 RMK AO2 T10011012
KRNH 250155Z AUTO 35006KT 7SM BKN013 BKN020 OVC060 00/M01 A2995 RMK AO2 T10021013
KRNH 250135Z AUTO 34007KT 3SM -SN SCT015 BKN021 OVC060 00/M01 A2995 RMK AO2 T10021014
KRNH 250115Z AUTO 34007KT 3SM -SN SCT017 OVC022 00/M01 A2995 RMK AO2 T10021015
KRNH 250055Z AUTO 34007KT 5SM -SN OVC020 00/M02 A2995 RMK AO2 T10021016
KRNH 250035Z AUTO 34006KT 5SM -SN OVC017 00/M01 A2996 RMK AO2 T10011015
KRNH 250015Z AUTO 34007KT 3SM -SN BKN017 OVC021 00/M01 A2996 RMK AO2 T00001015
KRNH 242355Z AUTO 34008KT 4SM -SN BKN015 OVC020 00/M01 A2997 RMK AO2 60003 T00001015 10008 20000
KRNH 242335Z AUTO 33009KT 10SM OVC015 00/M01 A2996 RMK AO2 T00001015
KRNH 242315Z AUTO 34007KT 10SM BKN015 OVC022 00/M01 A2997 RMK AO2 T00001015
KRNH 242255Z AUTO 34009KT 10SM BKN015 BKN022 OVC060 00/M01 A2997 RMK AO2 T00001015
KRNH 242235Z AUTO 34007KT 10SM BKN012 OVC023 00/M01 A2996 RMK AO2 T00011015
KRNH 242215Z AUTO 34008KT 7SM BKN010 BKN014 OVC023 00/M01 A2996 RMK AO2 T00031015
KRNH 242155Z AUTO 33007KT 5SM BR BKN010 OVC019 01/M01 A2996 RMK AO2 T00051015
KRNH 242135Z AUTO 33007KT 4SM BR BKN014 OVC019 01/M01 A2996 RMK AO2 T00051013
KRNH 242115Z AUTO 34006KT 4SM -SN OVC013 01/M01 A2996 RMK AO2 T00061015